createdAt,value
2023-01-13T00:08:01.570Z,97873.00
2023-01-13T00:28:04.243Z,97873.25
2023-01-13T00:48:06.971Z,97847.75
2023-01-13T01:08:09.544Z,97866.75
2023-01-13T01:28:12.443Z,97846.69
2023-01-13T01:48:15.056Z,97829.44
2023-01-13T02:08:18.662Z,97797.41
2023-01-13T02:28:21.683Z,97791.69
2023-01-13T02:48:24.240Z,97769.56
2023-01-13T03:08:26.840Z,97743.31
2023-01-13T03:28:29.803Z,97735.75
2023-01-13T03:48:33.490Z,97715.37
2023-01-13T04:08:36.159Z,97711.44
2023-01-13T04:28:38.937Z,97703.41
2023-01-13T04:48:41.897Z,97704.59
2023-01-13T05:08:44.614Z,97709.13
2023-01-13T05:28:47.115Z,97701.84
2023-01-13T05:48:49.608Z,97719.38
2023-01-13T06:08:52.236Z,97709.97
2023-01-13T06:28:54.953Z,97699.94
2023-01-13T06:48:57.464Z,97713.13
2023-01-13T07:09:00.560Z,97712.84
2023-01-13T07:29:03.138Z,97725.44
2023-01-13T07:49:05.729Z,97716.88
2023-01-13T08:09:08.401Z,97715.13
2023-01-13T08:29:13.684Z,97720.28
2023-01-13T08:49:17.271Z,97712.19
2023-01-13T09:09:19.955Z,97737.09
2023-01-13T09:29:22.522Z,97734.06
2023-01-13T09:49:25.149Z,97725.75
2023-01-13T10:09:27.928Z,97706.03
2023-01-13T10:29:30.540Z,97681.69
2023-01-13T10:49:34.002Z,97674.94
2023-01-13T11:09:36.748Z,97644.50
2023-01-13T11:29:39.516Z,97628.41
2023-01-13T11:49:42.079Z,97628.09
2023-01-13T12:09:45.715Z,97626.19
2023-01-13T12:29:51.275Z,97610.97
2023-01-13T12:49:54.036Z,97592.34
2023-01-13T13:09:56.449Z,97611.59
2023-01-13T13:29:58.912Z,97628.19
2023-01-13T13:50:02.634Z,97637.84
2023-01-13T14:10:06.097Z,97638.84
2023-01-13T14:30:08.795Z,97630.69
2023-01-13T14:50:11.259Z,97631.56
2023-01-13T15:10:13.673Z,97638.53
2023-01-13T15:30:16.323Z,97656.34
2023-01-13T16:10:35.101Z,97672.38
2023-01-13T16:30:37.608Z,97698.63
2023-01-13T16:50:43.129Z,97703.81
2023-01-13T17:10:48.593Z,97712.53
2023-01-13T17:30:51.115Z,97715.72
2023-01-13T17:50:54.791Z,97710.41
2023-01-13T18:11:01.446Z,97725.28
2023-01-13T18:31:04.083Z,97730.09
2023-01-13T18:51:06.775Z,97764.31
2023-01-13T19:11:09.660Z,97793.75
2023-01-13T19:31:12.613Z,97812.22
2023-01-13T19:51:15.729Z,97832.19
2023-01-13T20:11:25.039Z,97851.53
2023-01-13T20:31:27.963Z,97864.47
2023-01-13T20:51:30.420Z,97881.53
2023-01-13T21:11:51.853Z,97886.41
2023-01-13T21:31:55.526Z,97903.28
2023-01-13T21:51:58.825Z,97932.88
2023-01-13T22:12:02.700Z,97956.28
2023-01-13T22:32:05.401Z,97957.34
2023-01-13T22:52:09.359Z,97956.34
2023-01-13T23:12:11.947Z,97979.69
2023-01-13T23:32:14.402Z,97993.28
2023-01-13T23:52:17.099Z,98003.19
